Terminal Aerodrome Forecast
Issued by NWS

Home | Current Version | Previous Version | Text Only | Print | Product List | Glossary On
Versions: 1 2 3 4 5 6 7 8 9 10 11 12 13 14 15 16 17
000
FTUS44 KEPZ 181700
TAFTCS
TAF
KTCS 181722Z 1818/1918 10007KT P6SM VCSH FEW025 OVC080
      TEMPO 1818/1820 -SHRA BKN050
     FM182000 11006KT P6SM VCSH SCT040 BKN100
     FM190200 33006KT P6SM VCSH SCT020 BKN040
     FM190700 31005KT P6SM SCT025 BKN080=

USA.gov is the U.S. government's official web portal to all federal, state and local government web resources and services.